createdAt,value
2022-08-23T00:02:27.410Z,14.20
2022-08-23T00:05:07.795Z,14.18
2022-08-23T00:07:42.633Z,14.14
2022-08-23T00:10:13.402Z,14.11
2022-08-23T00:12:40.826Z,14.06
2022-08-23T00:15:13.517Z,14.06
2022-08-23T00:17:40.994Z,14.04
2022-08-23T00:20:12.363Z,14.01
2022-08-23T00:22:40.490Z,13.96
2022-08-23T00:25:11.539Z,13.91
2022-08-23T00:27:39.189Z,13.92
2022-08-23T00:30:10.726Z,13.86
2022-08-23T00:32:40.494Z,13.82
2022-08-23T00:35:10.035Z,13.82
2022-08-23T00:37:38.203Z,13.84
2022-08-23T00:40:09.565Z,13.86
2022-08-23T00:42:57.126Z,13.85
2022-08-23T00:46:09.616Z,13.79
2022-08-23T00:56:46.626Z,13.62
2022-08-23T01:03:14.327Z,13.55
2022-08-23T01:06:10.905Z,13.60
2022-08-23T01:08:41.895Z,13.61
2022-08-23T01:11:25.371Z,13.61
2022-08-23T01:14:49.059Z,13.53
2022-08-23T01:17:30.933Z,13.50
2022-08-23T01:20:08.906Z,13.53
2022-08-23T01:23:06.216Z,13.51
2022-08-23T01:25:34.524Z,13.52
2022-08-23T01:28:02.078Z,13.51
2022-08-23T01:34:44.710Z,13.40
2022-08-23T01:37:14.529Z,13.41
2022-08-23T01:39:41.742Z,13.38
2022-08-23T01:42:08.971Z,13.38
2022-08-23T01:44:36.204Z,13.32
2022-08-23T01:47:03.567Z,13.28
2022-08-23T01:49:30.766Z,13.31
2022-08-23T01:56:08.814Z,13.20
2022-08-23T01:58:36.834Z,13.22
2022-08-23T02:05:05.901Z,13.10
2022-08-23T02:07:33.203Z,13.12
2022-08-23T02:10:00.481Z,13.14
2022-08-23T02:12:30.047Z,13.12
2022-08-23T02:14:57.321Z,13.09
2022-08-23T02:17:24.900Z,13.05
2022-08-23T02:19:52.158Z,13.03
2022-08-23T02:26:30.941Z,12.86
2022-08-23T02:32:58.373Z,12.78
2022-08-23T02:35:26.707Z,12.78
2022-08-23T02:37:53.985Z,12.79
2022-08-23T02:40:40.783Z,12.84
2022-08-23T02:43:08.504Z,12.88
2022-08-23T02:46:05.717Z,12.90
2022-08-23T02:48:36.808Z,12.92
2022-08-23T02:51:08.509Z,12.87
2022-08-23T03:06:24.336Z,12.84
2022-08-23T03:08:51.832Z,12.87
2022-08-23T03:11:22.212Z,12.87
2022-08-23T03:13:51.387Z,12.83
2022-08-23T03:20:28.401Z,12.80
2022-08-23T03:22:55.697Z,12.79
2022-08-23T03:25:23.312Z,12.79
2022-08-23T03:27:50.767Z,12.79
2022-08-23T03:30:20.011Z,12.82
2022-08-23T03:32:49.134Z,12.82
2022-08-23T03:35:17.383Z,12.82
2022-08-23T03:37:44.855Z,12.85
2022-08-23T03:40:12.383Z,12.88
2022-08-23T03:42:39.633Z,12.81
2022-08-23T03:45:07.572Z,12.77
2022-08-23T03:47:34.725Z,12.79
2022-08-23T03:50:09.469Z,12.78
2022-08-23T03:52:36.675Z,12.77
2022-08-23T03:55:05.296Z,12.78
2022-08-23T03:57:32.601Z,12.78
2022-08-23T04:04:09.924Z,12.72
2022-08-23T04:10:47.034Z,12.69
2022-08-23T04:13:14.257Z,12.68
2022-08-23T04:15:43.391Z,12.70
2022-08-23T04:18:10.717Z,12.72
2022-08-23T04:20:38.047Z,12.71
2022-08-23T04:23:05.841Z,12.73
2022-08-23T04:25:35.578Z,12.68
2022-08-23T04:28:04.146Z,12.69
2022-08-23T04:34:41.956Z,12.59
2022-08-23T04:37:12.729Z,12.62
2022-08-23T04:39:43.179Z,12.63
2022-08-23T04:46:28.328Z,12.46
2022-08-23T04:48:55.538Z,12.49
2022-08-23T04:51:22.876Z,12.51
2022-08-23T04:53:50.089Z,12.49
2022-08-23T04:56:17.311Z,12.45
2022-08-23T04:58:44.533Z,12.45
2022-08-23T05:05:21.373Z,12.40
2022-08-23T05:07:48.957Z,12.40
2022-08-23T05:14:15.604Z,12.41
2022-08-23T05:16:42.858Z,12.44
2022-08-23T05:19:10.114Z,12.44
2022-08-23T05:25:37.336Z,12.44
2022-08-23T05:28:04.570Z,12.54
2022-08-23T05:30:31.894Z,12.58
2022-08-23T05:32:59.150Z,12.62
2022-08-23T05:35:29.356Z,12.64
2022-08-23T05:37:56.786Z,12.67
2022-08-23T05:40:23.939Z,12.72
2022-08-23T05:47:00.761Z,12.80
2022-08-23T05:53:40.187Z,12.89
2022-08-23T06:00:17.166Z,13.12
2022-08-23T06:02:44.397Z,13.27
2022-08-23T06:09:16.495Z,13.59
2022-08-23T06:11:46.546Z,13.72
2022-08-23T06:14:15.410Z,13.85
2022-08-23T06:16:47.544Z,14.01
2022-08-23T06:19:16.076Z,14.14
2022-08-23T06:25:53.176Z,14.39
2022-08-23T06:28:20.400Z,14.51
2022-08-23T06:30:57.296Z,14.62
2022-08-23T06:33:25.025Z,14.74
2022-08-23T06:36:07.231Z,14.81
2022-08-23T06:42:42.259Z,14.90
2022-08-23T06:45:12.762Z,14.94
2022-08-23T06:51:44.840Z,14.88
2022-08-23T06:54:16.114Z,14.94
2022-08-23T06:56:44.335Z,14.97
2022-08-23T07:00:04.604Z,15.01
2022-08-23T07:02:31.921Z,15.05
2022-08-23T07:04:59.455Z,15.16
2022-08-23T07:07:39.578Z,15.22
2022-08-23T07:10:11.572Z,15.24
2022-08-23T07:12:41.765Z,15.23
2022-08-23T07:15:11.330Z,15.28
2022-08-23T07:17:38.536Z,15.29
2022-08-23T07:20:07.184Z,15.29
2022-08-23T07:31:56.332Z,15.45
2022-08-23T07:34:24.555Z,15.54
2022-08-23T07:41:03.496Z,15.69
2022-08-23T07:43:34.740Z,15.78
2022-08-23T07:46:04.322Z,15.88
2022-08-23T07:52:31.155Z,16.11
2022-08-23T07:59:10.526Z,16.37
2022-08-23T08:01:39.047Z,16.49
2022-08-23T08:04:06.952Z,16.59
2022-08-23T08:06:59.923Z,16.67
2022-08-23T08:09:32.415Z,16.77
2022-08-23T08:11:59.658Z,16.82
2022-08-23T08:14:27.067Z,16.86
2022-08-23T08:16:54.611Z,16.94
2022-08-23T08:19:21.867Z,17.00
2022-08-23T08:21:49.129Z,17.03
2022-08-23T08:24:17.821Z,17.09
2022-08-23T08:26:46.373Z,17.16
2022-08-23T08:29:14.368Z,17.20
2022-08-23T08:31:45.054Z,17.22
2022-08-23T08:34:13.421Z,17.31
2022-08-23T08:36:54.142Z,17.38
2022-08-23T08:39:27.027Z,17.44
2022-08-23T08:42:10.546Z,17.50
2022-08-23T08:44:57.973Z,17.58
2022-08-23T08:47:51.247Z,17.61
2022-08-23T08:50:34.918Z,17.71
2022-08-23T08:53:15.635Z,17.83
2022-08-23T08:55:50.976Z,17.88
2022-08-23T08:58:29.865Z,17.94
2022-08-23T09:00:57.487Z,18.07
2022-08-23T09:03:32.535Z,18.22
2022-08-23T09:06:32.760Z,18.34
2022-08-23T09:09:18.232Z,18.46
2022-08-23T09:11:48.415Z,18.52
2022-08-23T09:14:34.518Z,18.60
2022-08-23T09:17:26.603Z,18.65
2022-08-23T09:19:59.961Z,18.79
2022-08-23T09:30:07.673Z,19.14
2022-08-23T09:37:05.643Z,19.39
2022-08-23T09:39:36.267Z,19.52
2022-08-23T09:45:50.981Z,19.76
2022-08-23T09:48:40.635Z,19.85
2022-08-23T09:51:22.502Z,19.93
2022-08-23T09:54:02.352Z,20.03
2022-08-23T10:00:33.523Z,20.19
2022-08-23T10:03:24.918Z,20.30
2022-08-23T10:05:57.594Z,20.43
2022-08-23T10:08:42.396Z,20.50
2022-08-23T10:11:30.217Z,20.57
2022-08-23T10:13:58.127Z,20.69
2022-08-23T10:17:14.147Z,20.78
2022-08-23T10:19:54.797Z,20.88
2022-08-23T10:22:57.378Z,21.00
2022-08-23T10:25:58.720Z,21.11
2022-08-23T10:28:39.615Z,21.22
2022-08-23T10:31:27.895Z,21.37
2022-08-23T10:34:34.567Z,21.55
2022-08-23T10:37:46.273Z,21.78
2022-08-23T10:40:37.492Z,21.98
2022-08-23T10:43:15.850Z,22.18
2022-08-23T10:45:46.662Z,22.36
2022-08-23T10:48:32.262Z,22.57
2022-08-23T10:51:17.875Z,22.79
2022-08-23T10:54:26.470Z,23.00
2022-08-23T10:56:57.382Z,23.17
2022-08-23T10:59:27.184Z,23.51
2022-08-23T11:02:17.690Z,23.90
2022-08-23T11:05:16.852Z,24.42
2022-08-23T11:07:59.990Z,24.86
2022-08-23T11:10:39.487Z,25.44
2022-08-23T11:13:15.846Z,25.94
2022-08-23T11:15:55.289Z,26.58
2022-08-23T11:22:30.522Z,27.50
2022-08-23T11:29:05.869Z,27.71
2022-08-23T11:31:42.761Z,27.98
2022-08-23T11:34:29.387Z,28.21
2022-08-23T11:37:18.601Z,28.38
2022-08-23T11:39:58.083Z,28.66
2022-08-23T11:42:52.628Z,28.77
2022-08-23T11:45:38.229Z,29.04
2022-08-23T11:48:16.820Z,29.13
2022-08-23T11:51:08.610Z,29.11
2022-08-23T11:54:12.838Z,28.91
2022-08-23T12:04:50.336Z,29.14
2022-08-23T12:07:55.234Z,29.02
2022-08-23T12:10:41.176Z,28.78
2022-08-23T12:13:20.562Z,28.62
2022-08-23T12:16:17.539Z,28.47
2022-08-23T12:18:50.883Z,28.51
2022-08-23T12:21:46.370Z,28.66
2022-08-23T12:24:32.605Z,28.69
2022-08-23T12:27:32.821Z,28.67
2022-08-23T12:30:09.501Z,28.51
2022-08-23T12:33:26.025Z,28.02
2022-08-23T12:39:59.755Z,27.34
2022-08-23T12:42:31.330Z,27.36
2022-08-23T12:45:21.203Z,27.43
2022-08-23T12:48:01.852Z,27.36
2022-08-23T12:50:33.891Z,27.18
2022-08-23T12:53:08.841Z,27.17
2022-08-23T12:55:43.041Z,27.32
2022-08-23T12:58:12.780Z,27.43
2022-08-23T13:00:54.959Z,27.50
2022-08-23T13:03:38.864Z,27.67
2022-08-23T13:06:57.854Z,27.87
2022-08-23T13:09:34.716Z,28.05
2022-08-23T13:12:02.896Z,28.15
2022-08-23T13:18:42.259Z,28.31
2022-08-23T13:21:34.125Z,28.41
2022-08-23T13:24:38.506Z,28.57
2022-08-23T13:31:08.409Z,28.97
2022-08-23T13:37:35.798Z,29.00
2022-08-23T13:40:15.959Z,28.92
2022-08-23T13:42:47.926Z,29.04
2022-08-23T13:49:20.427Z,29.35
2022-08-23T13:52:18.350Z,29.53
2022-08-23T13:54:52.423Z,29.58
2022-08-23T13:57:21.964Z,29.67
2022-08-23T13:59:56.059Z,29.66
2022-08-23T14:02:24.607Z,29.71
2022-08-23T14:04:51.983Z,29.70
2022-08-23T14:07:20.390Z,29.69
2022-08-23T14:09:49.337Z,29.61
2022-08-23T14:12:25.081Z,29.63
2022-08-23T14:14:58.025Z,29.72
2022-08-23T14:17:26.130Z,29.78
2022-08-23T14:20:31.921Z,29.86
2022-08-23T14:22:41.186Z,29.96
2022-08-23T14:25:10.091Z,30.05
2022-08-23T14:27:41.300Z,30.18
2022-08-23T14:30:24.953Z,30.15
2022-08-23T14:32:59.319Z,30.07
2022-08-23T14:35:26.959Z,30.12
2022-08-23T14:38:09.367Z,30.20
2022-08-23T14:40:36.923Z,30.37
2022-08-23T14:43:05.449Z,30.41
2022-08-23T14:45:32.677Z,30.51
2022-08-23T14:48:00.093Z,30.51
2022-08-23T14:50:28.640Z,30.56
2022-08-23T14:52:56.402Z,30.67
2022-08-23T14:55:25.137Z,30.78
2022-08-23T14:57:52.649Z,30.84
2022-08-23T15:00:20.324Z,30.98
2022-08-23T15:02:48.264Z,31.02
2022-08-23T15:05:16.568Z,31.07
2022-08-23T15:07:44.656Z,31.14
2022-08-23T15:10:49.985Z,31.25
2022-08-23T15:13:19.169Z,31.21
2022-08-23T15:15:49.246Z,31.00
2022-08-23T15:18:18.236Z,31.05
2022-08-23T15:20:46.321Z,31.13
2022-08-23T15:23:14.381Z,31.20
2022-08-23T15:25:44.653Z,31.19
2022-08-23T15:28:16.920Z,31.09
2022-08-23T15:30:45.986Z,30.96
2022-08-23T15:33:13.667Z,30.87
2022-08-23T15:35:50.762Z,30.77
2022-08-23T15:38:19.401Z,30.84
2022-08-23T15:40:46.833Z,30.89
2022-08-23T15:43:14.091Z,31.01
2022-08-23T15:45:41.819Z,31.20
2022-08-23T15:48:32.055Z,31.15
2022-08-23T15:51:00.176Z,31.17
2022-08-23T15:53:27.663Z,31.14
2022-08-23T15:55:54.843Z,31.12
2022-08-23T15:58:26.303Z,31.17
2022-08-23T16:00:55.023Z,31.19
2022-08-23T16:03:23.129Z,31.16
2022-08-23T16:05:53.637Z,31.00
2022-08-23T16:08:28.259Z,30.73
2022-08-23T16:10:56.297Z,30.44
2022-08-23T16:13:25.769Z,30.25
2022-08-23T16:15:53.539Z,29.96
2022-08-23T16:18:20.843Z,29.74
2022-08-23T16:20:48.163Z,29.61
2022-08-23T16:23:15.469Z,29.41
2022-08-23T16:25:43.182Z,29.11
2022-08-23T16:28:10.392Z,28.79
2022-08-23T16:30:37.791Z,28.49
2022-08-23T16:33:05.200Z,28.30
2022-08-23T16:35:32.492Z,28.02
2022-08-23T16:37:59.749Z,27.81
2022-08-23T16:40:27.225Z,27.60
2022-08-23T16:42:54.437Z,27.34
2022-08-23T16:45:25.851Z,27.15
2022-08-23T16:47:54.366Z,26.95
2022-08-23T16:50:21.785Z,26.73
2022-08-23T16:52:48.951Z,26.50
2022-08-23T16:55:16.571Z,26.31
2022-08-23T16:57:46.601Z,26.15
2022-08-23T17:00:14.440Z,25.88
2022-08-23T17:02:43.269Z,25.65
2022-08-23T17:05:17.325Z,25.56
2022-08-23T17:07:45.367Z,25.40
2022-08-23T17:10:15.757Z,25.35
2022-08-23T17:12:47.361Z,25.23
2022-08-23T17:15:20.566Z,25.09
2022-08-23T17:17:49.382Z,25.02
2022-08-23T17:20:20.598Z,24.92
2022-08-23T17:22:48.716Z,24.67
2022-08-23T17:25:18.080Z,24.48
2022-08-23T17:27:47.326Z,24.44
2022-08-23T17:30:20.757Z,24.41
2022-08-23T17:32:49.716Z,24.34
2022-08-23T17:35:22.176Z,24.24
2022-08-23T17:37:50.107Z,24.07
2022-08-23T17:40:25.906Z,23.96
2022-08-23T17:42:53.305Z,23.90
2022-08-23T17:45:22.481Z,23.77
2022-08-23T17:47:50.466Z,23.65
2022-08-23T17:50:18.936Z,23.58
2022-08-23T17:52:46.470Z,23.47
2022-08-23T17:55:15.049Z,23.32
2022-08-23T17:57:43.399Z,23.22
2022-08-23T18:00:12.851Z,23.10
2022-08-23T18:02:41.076Z,22.95
2022-08-23T18:05:09.743Z,22.82
2022-08-23T18:07:39.078Z,22.67
2022-08-23T18:10:08.382Z,22.54
2022-08-23T18:12:36.948Z,22.37
2022-08-23T18:15:05.486Z,22.21
2022-08-23T18:17:36.501Z,22.07
2022-08-23T18:20:10.704Z,21.95
2022-08-23T18:22:42.066Z,21.80
2022-08-23T18:25:11.278Z,21.70
2022-08-23T18:27:38.460Z,21.58
2022-08-23T18:30:09.962Z,21.49
2022-08-23T18:32:37.716Z,21.30
2022-08-23T18:35:06.538Z,21.24
2022-08-23T18:37:35.082Z,21.17
2022-08-23T18:40:09.559Z,21.02
2022-08-23T18:42:37.964Z,20.94
2022-08-23T18:45:08.379Z,20.86
2022-08-23T18:47:35.702Z,20.74
2022-08-23T18:50:08.889Z,20.66
2022-08-23T18:52:36.465Z,20.56
2022-08-23T18:55:05.199Z,20.45
2022-08-23T18:57:32.399Z,20.38
2022-08-23T18:59:59.695Z,20.29
2022-08-23T19:02:27.044Z,20.20
2022-08-23T19:04:54.255Z,20.10
2022-08-23T19:07:21.453Z,20.01
2022-08-23T19:09:49.490Z,19.95
2022-08-23T19:12:17.068Z,19.86
2022-08-23T19:14:44.425Z,19.78
2022-08-23T19:17:11.651Z,19.70
2022-08-23T19:19:38.953Z,19.65
2022-08-23T19:22:09.005Z,19.63
2022-08-23T19:24:36.287Z,19.55
2022-08-23T19:27:05.931Z,19.48
2022-08-23T19:29:33.728Z,19.42
2022-08-23T19:32:01.169Z,19.32
2022-08-23T19:34:28.541Z,19.26
2022-08-23T19:37:01.199Z,19.21
2022-08-23T19:39:30.099Z,19.14
2022-08-23T19:41:58.148Z,19.05
2022-08-23T19:44:25.724Z,18.99
2022-08-23T19:46:55.350Z,18.91
2022-08-23T19:49:22.915Z,18.90
2022-08-23T19:51:50.155Z,18.82
2022-08-23T19:54:17.503Z,18.74
2022-08-23T19:56:52.620Z,18.67
2022-08-23T19:59:25.216Z,18.58
2022-08-23T20:01:55.043Z,18.51
2022-08-23T20:04:24.168Z,18.48
2022-08-23T20:06:51.435Z,18.42
2022-08-23T20:09:22.104Z,18.40
2022-08-23T20:11:52.010Z,18.33
2022-08-23T20:14:21.316Z,18.30
2022-08-23T20:16:49.436Z,18.25
2022-08-23T20:19:17.877Z,18.18
2022-08-23T20:21:45.303Z,18.10
2022-08-23T20:24:15.081Z,18.05
2022-08-23T20:26:48.064Z,17.99
2022-08-23T20:29:20.454Z,17.91
2022-08-23T20:31:58.440Z,17.83
2022-08-23T20:34:27.164Z,17.76
2022-08-23T20:36:55.702Z,17.72
2022-08-23T20:39:24.450Z,17.68
2022-08-23T20:41:53.422Z,17.67
2022-08-23T20:44:26.178Z,17.62
2022-08-23T20:46:56.739Z,17.56
2022-08-23T20:49:26.944Z,17.46
2022-08-23T20:51:54.212Z,17.41
2022-08-23T20:54:22.760Z,17.39
2022-08-23T20:56:51.753Z,17.28
2022-08-23T20:59:20.471Z,17.26
2022-08-23T21:01:50.562Z,17.26
2022-08-23T21:04:19.302Z,17.22
2022-08-23T21:06:51.820Z,17.16
2022-08-23T21:09:27.717Z,17.09
2022-08-23T21:11:57.462Z,17.08
2022-08-23T21:14:24.732Z,17.00
2022-08-23T21:16:52.028Z,16.98
2022-08-23T21:19:19.193Z,16.96
2022-08-23T21:21:46.720Z,16.95
2022-08-23T21:24:14.697Z,16.89
2022-08-23T21:26:42.378Z,16.83
2022-08-23T21:29:10.438Z,16.79
2022-08-23T21:31:39.175Z,16.78
2022-08-23T21:34:07.162Z,16.76
2022-08-23T21:36:40.947Z,16.69
2022-08-23T21:39:08.198Z,16.63
2022-08-23T21:41:40.643Z,16.61
2022-08-23T21:44:13.323Z,16.53
2022-08-23T21:46:42.012Z,16.49
2022-08-23T21:49:12.192Z,16.41
2022-08-23T21:51:40.917Z,16.40
2022-08-23T21:54:11.855Z,16.35
2022-08-23T21:56:39.763Z,16.32
2022-08-23T21:59:12.061Z,16.27
2022-08-23T22:01:40.217Z,16.19
2022-08-23T22:04:10.549Z,16.15
2022-08-23T22:06:38.423Z,16.10
2022-08-23T22:09:10.539Z,16.07
2022-08-23T22:11:39.983Z,16.04
2022-08-23T22:14:10.605Z,15.95
2022-08-23T22:16:37.915Z,15.96
2022-08-23T22:19:05.441Z,15.92
2022-08-23T22:21:35.581Z,15.88
2022-08-23T22:24:03.317Z,15.85
2022-08-23T22:26:30.785Z,15.83
2022-08-23T22:28:58.020Z,15.78
2022-08-23T22:31:25.304Z,15.73
2022-08-23T22:33:53.045Z,15.67
2022-08-23T22:36:22.781Z,15.68
2022-08-23T22:38:51.526Z,15.68
2022-08-23T22:41:25.675Z,15.69
2022-08-23T22:43:54.615Z,15.66
2022-08-23T22:46:23.216Z,15.69
2022-08-23T22:48:50.502Z,15.69
2022-08-23T22:51:22.721Z,15.65
2022-08-23T22:53:57.217Z,15.60
2022-08-23T22:56:47.203Z,15.54
2022-08-23T22:59:16.540Z,15.50
2022-08-23T23:01:49.894Z,15.43
2022-08-23T23:04:20.873Z,15.40
2022-08-23T23:06:49.481Z,15.36
2022-08-23T23:09:17.365Z,15.36
2022-08-23T23:11:46.108Z,15.38
2022-08-23T23:14:16.468Z,15.32
2022-08-23T23:16:44.946Z,15.29
2022-08-23T23:19:12.685Z,15.28
2022-08-23T23:21:51.384Z,15.28
2022-08-23T23:24:26.925Z,15.22
2022-08-23T23:26:54.110Z,15.18
2022-08-23T23:29:21.986Z,15.16
2022-08-23T23:31:49.745Z,15.16
2022-08-23T23:34:17.329Z,15.18
2022-08-23T23:36:45.671Z,15.18
2022-08-23T23:39:14.660Z,15.15
2022-08-23T23:41:43.251Z,15.11
2022-08-23T23:44:10.501Z,15.07
2022-08-23T23:46:37.797Z,15.00
2022-08-23T23:49:05.147Z,14.98
2022-08-23T23:51:33.255Z,14.98
2022-08-23T23:54:01.378Z,14.96
2022-08-23T23:56:31.022Z,14.91
2022-08-23T23:58:58.882Z,14.88
